CheckWX is a tool to help pilots better visualize weather data.  It is not intended as a substitute for an official pre-flight weather briefing.

08:25:18 UTC

GMFO METAR
Angads Airport
Oujda, Morocco
Current

25 mins ago

GMFO 220800Z VRB03KT 0800 R06/P2000N FG BKN003 06/06 Q1031 BECMG 4000 BR
Observed
Feb-22 @ 08:00 UTC
Wind
  • Variable at 3 KTS
Visibility
805 meters
Flight Rules
LIFR
Conditions
Fog
Cloud Levels
  • Broken at 300' AGL
Temperature
C / 43°F
Dewpoint
C / 43°F
Humidity
100%
Altimeter
30.44" Hg
Pressure
1030.91 hPa
Previous

1 hour ago

GMFO 220700Z 17005KT 120V220 0300 R06/0500D FG BKN000 06/06 Q1031 NOSIG
Observed
Feb-22 @ 07:00 UTC
Wind
  • 170° at 5 KTS
Visibility
306 meters
Flight Rules
LIFR
Conditions
Fog
Cloud Levels
  • Broken
Temperature
C / 43°F
Dewpoint
C / 43°F
Humidity
100%
Altimeter
30.44" Hg
Pressure
1030.91 hPa
Previous

2 hours ago

GMFO 220600Z AUTO 19005KT 150V270 0100 R06/0450N ////// 07/07 Q1031 NOSIG
Observed
Feb-22 @ 06:00 UTC
Wind
  • 190° at 5 KTS
Visibility
97 meters
Temperature
C / 45°F
Dewpoint
C / 45°F
Humidity
100%
Altimeter
30.44" Hg
Pressure
1030.91 hPa